Time;durP1;ratioP1;P1;durP2;ratioP2;P2;SDS_P1;SDS_P2;PMS_P1;PMS_P2;Temp;Humidity;BMP_temperature;BMP_pressure;BME280_temperature;BME280_humidity;BME280_pressure;Samples;Min_cycle;Max_cycle;Signal;HPM_P1;HPM_P2
2022/06/20 00:02:19;;;;;;;7.80;4.37;;;25.20;60.50;;;;;;5050358;28;20439;-74
2022/06/20 00:05:06;;;;;;;14.77;4.40;;;25.10;61.40;;;;;;5052998;28;20446;-74
2022/06/20 00:07:52;;;;;;;7.73;4.00;;;25.00;61.40;;;;;;5052034;28;20478;-73
2022/06/20 00:10:41;;;;;;;13.40;5.30;;;25.00;62.10;;;;;;5050719;28;20911;-74
2022/06/20 00:13:31;;;;;;;19.60;5.50;;;24.80;62.00;;;;;;5049225;28;20964;-74
2022/06/20 00:16:18;;;;;;;10.37;4.63;;;24.80;62.00;;;;;;5050929;28;20452;-74
2022/06/20 00:19:04;;;;;;;14.43;5.27;;;24.80;62.80;;;;;;5044970;28;20455;-74
2022/06/20 00:21:50;;;;;;;11.93;5.00;;;24.70;63.70;;;;;;5044445;28;20444;-73
2022/06/20 00:24:35;;;;;;;11.80;4.97;;;24.50;64.80;;;;;;5049235;28;20960;-74
2022/06/20 00:27:22;;;;;;;18.60;5.93;;;24.40;66.20;;;;;;5053660;28;20956;-73
2022/06/20 00:30:11;;;;;;;9.20;4.50;;;24.30;66.80;;;;;;5047775;28;20474;-74
2022/06/20 00:32:56;;;;;;;10.60;4.60;;;24.30;67.60;;;;;;5050693;28;20491;-73
2022/06/20 00:35:42;;;;;;;10.60;4.47;;;24.20;67.40;;;;;;5051311;28;20770;-74
2022/06/20 00:38:28;;;;;;;12.47;4.90;;;24.10;68.30;;;;;;5046956;28;20830;-74
2022/06/20 00:41:18;;;;;;;13.17;5.53;;;23.90;68.80;;;;;;5047334;28;20793;-74
2022/06/20 00:44:05;;;;;;;11.47;4.30;;;23.80;70.50;;;;;;5051332;28;20506;-74
2022/06/20 00:46:56;;;;;;;9.30;4.40;;;23.60;70.70;;;;;;5050686;28;20965;-74
2022/06/20 00:49:47;;;;;;;16.10;5.20;;;23.50;71.70;;;;;;5047454;28;20509;-75
2022/06/20 00:52:40;;;;;;;11.50;4.27;;;23.40;71.80;;;;;;5052613;28;20443;-74
2022/06/20 00:55:31;;;;;;;10.50;5.00;;;23.40;72.20;;;;;;5052716;28;20438;-74
2022/06/20 00:58:29;;;;;;;14.70;4.80;;;23.30;72.80;;;;;;5042764;28;20463;-74
2022/06/20 01:01:20;;;;;;;14.83;4.67;;;23.20;73.70;;;;;;5053839;28;20527;-74
2022/06/20 01:04:11;;;;;;;10.07;4.87;;;23.10;74.80;;;;;;5048017;28;20533;-75
2022/06/20 01:06:59;;;;;;;11.23;5.07;;;22.90;77.00;;;;;;5049261;28;20438;-74
2022/06/20 01:09:50;;;;;;;16.03;5.53;;;22.70;77.50;;;;;;5044686;28;20471;-73
2022/06/20 01:12:45;;;;;;;14.03;5.33;;;22.60;79.70;;;;;;5053089;28;20521;-74
2022/06/20 01:15:37;;;;;;;10.33;4.13;;;22.50;80.20;;;;;;5047061;28;20591;-73
2022/06/20 01:18:28;;;;;;;10.77;4.70;;;22.40;81.00;;;;;;5054119;28;20462;-74
2022/06/20 01:21:16;;;;;;;13.20;5.33;;;22.40;81.40;;;;;;5047519;28;20581;-74
2022/06/20 01:24:10;;;;;;;8.57;4.80;;;22.40;81.20;;;;;;5048629;28;20435;-74
2022/06/20 01:27:12;;;;;;;14.20;5.30;;;22.40;81.70;;;;;;5047359;28;20557;-74
2022/06/20 01:29:58;;;;;;;12.90;5.00;;;22.40;81.80;;;;;;5049244;28;20614;-74
2022/06/20 01:32:44;;;;;;;13.83;4.70;;;22.50;81.70;;;;;;5051044;28;20964;-75
2022/06/20 01:38:34;;;;;;;12.87;5.03;;;22.30;83.10;;;;;;5044118;28;20474;-74
2022/06/20 01:44:24;;;;;;;9.73;5.37;;;22.30;83.80;;;;;;5053136;28;21070;-74
2022/06/20 01:47:11;;;;;;;8.90;4.37;;;22.50;83.30;;;;;;5044605;28;20570;-74
2022/06/20 01:50:02;;;;;;;11.60;5.07;;;22.40;83.50;;;;;;5049998;28;20847;-74
2022/06/20 01:52:48;;;;;;;11.10;4.37;;;22.40;82.70;;;;;;5043726;28;20519;-74
2022/06/20 01:55:35;;;;;;;11.53;4.70;;;22.40;83.10;;;;;;5054426;28;20498;-74
2022/06/20 01:58:30;;;;;;;13.80;5.07;;;22.40;83.30;;;;;;5047576;28;20841;-74
2022/06/20 02:01:17;;;;;;;12.07;4.27;;;22.40;83.30;;;;;;5051262;28;20957;-74
2022/06/20 02:04:04;;;;;;;10.80;4.63;;;22.30;83.90;;;;;;5047258;28;21195;-75
2022/06/20 02:06:52;;;;;;;18.77;5.20;;;22.00;85.00;;;;;;5045270;28;20446;-75
2022/06/20 02:09:39;;;;;;;10.03;4.60;;;21.90;85.50;;;;;;5050134;28;20535;-75
2022/06/20 02:12:26;;;;;;;12.50;5.97;;;22.00;86.10;;;;;;5058675;28;20798;-74
2022/06/20 02:15:16;;;;;;;11.27;4.30;;;22.00;86.70;;;;;;5059010;28;20454;-74
2022/06/20 02:18:07;;;;;;;15.20;4.77;;;21.90;86.20;;;;;;5046177;28;20955;-74
2022/06/20 02:20:56;;;;;;;10.03;5.07;;;22.00;85.50;;;;;;5051599;28;20447;-74
2022/06/20 02:23:46;;;;;;;15.47;4.43;;;22.10;84.10;;;;;;5051279;28;20451;-74
2022/06/20 02:26:36;;;;;;;18.17;5.10;;;22.10;81.20;;;;;;5054808;28;20423;-74
2022/06/20 02:29:26;;;;;;;14.20;3.77;;;22.30;79.40;;;;;;5060152;28;20536;-74
2022/06/20 02:32:15;;;;;;;5.83;3.00;;;22.50;74.80;;;;;;5051476;28;20447;-74
2022/06/20 02:35:04;;;;;;;8.07;3.70;;;22.50;74.00;;;;;;5050826;28;20834;-74
2022/06/20 02:37:50;;;;;;;7.93;3.03;;;22.50;70.60;;;;;;5040952;28;20517;-74
2022/06/20 02:40:41;;;;;;;14.67;3.07;;;22.50;69.00;;;;;;5050127;28;20455;-74
2022/06/20 02:43:36;;;;;;;7.03;3.80;;;22.50;68.60;;;;;;5064536;28;20428;-74
2022/06/20 02:46:25;;;;;;;8.93;3.43;;;22.50;67.80;;;;;;5048809;28;20510;-74
2022/06/20 02:49:12;;;;;;;9.53;3.43;;;22.50;67.10;;;;;;5051015;28;20956;-74
2022/06/20 02:52:02;;;;;;;9.73;2.80;;;22.50;67.90;;;;;;5051594;28;20419;-75
2022/06/20 02:54:50;;;;;;;20.63;3.53;;;22.50;68.10;;;;;;5049889;28;20526;-75
2022/06/20 02:57:41;;;;;;;11.27;3.50;;;22.50;67.70;;;;;;5048789;28;20467;-74
2022/06/20 03:00:33;;;;;;;7.07;3.13;;;22.50;68.00;;;;;;5052233;28;20439;-74
2022/06/20 03:03:25;;;;;;;9.83;3.30;;;22.50;67.40;;;;;;5056798;28;21039;-74
2022/06/20 03:06:24;;;;;;;8.47;3.37;;;22.60;66.00;;;;;;5047176;28;20549;-74
2022/06/20 03:09:13;;;;;;;15.57;3.03;;;22.50;66.10;;;;;;5041542;28;20471;-74
2022/06/20 03:11:59;;;;;;;14.93;3.30;;;22.40;65.40;;;;;;5045247;28;20479;-75
2022/06/20 03:14:47;;;;;;;12.13;2.70;;;22.50;65.10;;;;;;5050290;28;20559;-74
2022/06/20 03:17:33;;;;;;;9.73;3.40;;;22.50;65.20;;;;;;5050000;28;20589;-74
2022/06/20 03:20:21;;;;;;;10.60;3.30;;;22.40;65.20;;;;;;5050877;28;20947;-74
2022/06/20 03:23:10;;;;;;;6.90;2.80;;;22.40;64.50;;;;;;5049860;28;20493;-74
2022/06/20 03:25:59;;;;;;;8.70;2.77;;;22.40;63.20;;;;;;5042657;28;20448;-74
2022/06/20 03:28:45;;;;;;;8.10;2.70;;;22.30;62.60;;;;;;5056919;28;20463;-74
2022/06/20 03:31:31;;;;;;;7.27;2.80;;;22.20;62.90;;;;;;5051278;28;20423;-74
2022/06/20 03:34:17;;;;;;;10.20;3.00;;;22.10;63.10;;;;;;5050161;28;20466;-74
2022/06/20 03:37:03;;;;;;;7.00;2.80;;;22.00;63.10;;;;;;5042729;28;20490;-74
2022/06/20 03:39:50;;;;;;;9.00;2.80;;;22.00;63.40;;;;;;5049547;28;20423;-74
2022/06/20 03:42:38;;;;;;;5.50;2.37;;;21.90;62.70;;;;;;5052892;28;20466;-74
2022/06/20 03:45:28;;;;;;;7.13;2.33;;;21.80;62.70;;;;;;5049183;28;20536;-74
2022/06/20 03:48:18;;;;;;;19.10;3.07;;;21.80;62.40;;;;;;5055295;28;20470;-74
2022/06/20 03:51:08;;;;;;;8.80;3.20;;;21.80;62.50;;;;;;5045666;28;21019;-74
2022/06/20 03:54:00;;;;;;;6.33;2.43;;;21.70;63.00;;;;;;5047287;28;20799;-74
2022/06/20 03:56:52;;;;;;;6.07;2.60;;;21.70;62.60;;;;;;5038122;28;20451;-74
2022/06/20 03:59:44;;;;;;;10.90;2.50;;;21.70;62.90;;;;;;5051456;28;20490;-74
2022/06/20 04:02:34;;;;;;;7.70;2.70;;;21.70;62.40;;;;;;5049472;28;20558;-74
2022/06/20 04:05:24;;;;;;;6.33;1.77;;;21.60;62.90;;;;;;5048020;28;20428;-74
2022/06/20 04:08:16;;;;;;;7.57;2.33;;;21.60;62.40;;;;;;5043781;28;20483;-75
2022/06/20 04:11:03;;;;;;;7.00;2.60;;;21.60;62.90;;;;;;5056915;28;21004;-74
2022/06/20 04:13:57;;;;;;;3.90;2.13;;;21.50;63.40;;;;;;5048571;28;20526;-75
2022/06/20 04:16:49;;;;;;;4.93;2.40;;;21.60;63.90;;;;;;5040394;28;20869;-74
2022/06/20 04:19:38;;;;;;;6.23;2.37;;;21.60;64.00;;;;;;5048437;28;20450;-74
2022/06/20 04:22:28;;;;;;;7.33;2.57;;;21.60;64.40;;;;;;5060960;28;20465;-74
2022/06/20 04:25:21;;;;;;;6.30;2.30;;;21.70;64.80;;;;;;5043372;28;20447;-74
2022/06/20 04:28:14;;;;;;;10.50;2.30;;;21.60;65.00;;;;;;5050294;28;20487;-74
2022/06/20 04:31:04;;;;;;;6.90;2.10;;;21.70;65.00;;;;;;5049189;28;20475;-74
2022/06/20 04:33:58;;;;;;;6.50;2.43;;;21.60;66.20;;;;;;5053973;28;20790;-74
2022/06/20 04:36:52;;;;;;;8.20;2.77;;;21.40;64.60;;;;;;5040919;28;20440;-73
2022/06/20 04:39:53;;;;;;;6.43;2.10;;;21.40;64.90;;;;;;5053181;28;20441;-74
2022/06/20 04:42:41;;;;;;;6.80;2.43;;;21.50;68.40;;;;;;5048548;28;21137;-74
2022/06/20 04:45:33;;;;;;;9.47;2.20;;;21.60;69.40;;;;;;5048896;28;20545;-74
2022/06/20 04:48:21;;;;;;;8.97;3.60;;;21.60;67.60;;;;;;5046582;28;21127;-74
2022/06/20 04:51:13;;;;;;;5.17;2.40;;;21.40;66.90;;;;;;5058065;28;20474;-74
2022/06/20 04:54:00;;;;;;;12.80;2.83;;;21.40;66.10;;;;;;5046438;28;20501;-74
2022/06/20 04:56:47;;;;;;;6.50;2.40;;;21.30;67.90;;;;;;5045236;28;20502;-74
2022/06/20 04:59:34;;;;;;;6.70;2.90;;;21.40;71.20;;;;;;5049932;28;20435;-74
2022/06/20 05:02:23;;;;;;;9.47;3.00;;;21.40;71.50;;;;;;5045829;28;20507;-74
2022/06/20 05:05:17;;;;;;;8.27;3.43;;;21.20;70.00;;;;;;5045445;28;20455;-74
2022/06/20 05:08:11;;;;;;;6.73;2.40;;;21.10;71.50;;;;;;5060242;22;20579;-73
2022/06/20 05:11:02;;;;;;;6.70;2.70;;;21.20;71.00;;;;;;5029809;28;20464;-74
2022/06/20 05:13:51;;;;;;;9.50;2.80;;;21.10;70.50;;;;;;5037874;28;20592;-74
2022/06/20 05:16:47;;;;;;;7.07;2.77;;;21.10;72.00;;;;;;5030198;28;20444;-73
2022/06/20 05:19:38;;;;;;;5.63;2.50;;;21.20;71.80;;;;;;5037575;28;20518;-73
2022/06/20 05:22:27;;;;;;;16.00;3.10;;;21.20;70.80;;;;;;5045407;28;20785;-73
2022/06/20 05:25:22;;;;;;;7.13;2.60;;;21.20;71.10;;;;;;5022120;28;20577;-74
2022/06/20 05:28:13;;;;;;;11.63;3.17;;;21.30;70.90;;;;;;5033356;28;20449;-74
2022/06/20 05:31:00;;;;;;;4.80;2.80;;;21.50;70.80;;;;;;5028025;28;20573;-73
2022/06/20 05:33:55;;;;;;;4.70;2.70;;;21.20;70.80;;;;;;5039529;28;20467;-73
2022/06/20 05:36:49;;;;;;;8.80;2.80;;;21.10;74.30;;;;;;5036265;28;20956;-73
2022/06/20 05:39:41;;;;;;;9.87;3.23;;;21.20;76.50;;;;;;5038039;28;20521;-73
2022/06/20 05:42:28;;;;;;;7.13;2.80;;;21.40;73.10;;;;;;5033552;28;20444;-73
2022/06/20 05:45:16;;;;;;;12.53;3.33;;;21.50;72.70;;;;;;5030941;28;21013;-74
2022/06/20 05:48:07;;;;;;;7.43;2.57;;;21.60;74.70;;;;;;5030395;28;20475;-73
2022/06/20 05:50:56;;;;;;;11.80;2.87;;;21.70;76.80;;;;;;5035440;28;20551;-73
2022/06/20 05:53:46;;;;;;;17.33;3.67;;;21.80;74.00;;;;;;5036482;28;20423;-74
2022/06/20 05:56:36;;;;;;;8.23;2.80;;;21.80;71.00;;;;;;5035065;28;21427;-74
2022/06/20 05:59:44;;;;;;;6.60;2.93;;;21.90;70.20;;;;;;5030439;28;20600;-73
2022/06/20 06:02:36;;;;;;;6.57;3.20;;;22.00;68.40;;;;;;5030817;28;20790;-74
2022/06/20 06:05:27;;;;;;;9.30;3.00;;;22.10;67.60;;;;;;5026366;28;20444;-73
2022/06/20 06:08:20;;;;;;;11.50;3.60;;;22.00;67.80;;;;;;5040112;28;20546;-73
2022/06/20 06:11:12;;;;;;;9.00;3.00;;;22.00;68.60;;;;;;5040261;28;20495;-73
2022/06/20 06:14:04;;;;;;;7.40;2.90;;;21.70;68.10;;;;;;5033797;28;20436;-74
2022/06/20 06:16:56;;;;;;;10.50;3.00;;;21.90;69.40;;;;;;5032328;28;20802;-73
2022/06/20 06:19:48;;;;;;;6.80;2.80;;;22.00;68.80;;;;;;5035681;28;20566;-74
2022/06/20 06:22:39;;;;;;;8.30;3.17;;;22.00;69.20;;;;;;5039523;28;20434;-74
2022/06/20 06:25:29;;;;;;;6.90;2.70;;;21.80;66.90;;;;;;5026980;28;20490;-73
2022/06/20 06:28:18;;;;;;;11.70;3.17;;;21.50;70.10;;;;;;5034319;28;20468;-73
2022/06/20 06:31:09;;;;;;;11.50;3.43;;;21.50;70.50;;;;;;5033366;28;20471;-73
2022/06/20 06:34:02;;;;;;;12.50;3.70;;;21.50;75.80;;;;;;5028907;28;20826;-75
2022/06/20 06:36:51;;;;;;;13.23;3.40;;;21.40;78.70;;;;;;5036399;28;20937;-73
2022/06/20 06:39:44;;;;;;;10.70;3.20;;;21.50;78.50;;;;;;5027228;28;21050;-73
2022/06/20 06:42:30;;;;;;;4.90;3.10;;;21.50;78.20;;;;;;5039999;28;20440;-73
2022/06/20 06:45:21;;;;;;;10.07;2.90;;;21.50;80.20;;;;;;5024256;28;20771;-73
2022/06/20 06:48:13;;;;;;;5.57;2.87;;;21.40;85.20;;;;;;5033581;28;20476;-73
2022/06/20 06:51:05;;;;;;;8.83;4.13;;;21.60;82.90;;;;;;5032016;28;20467;-72
2022/06/20 06:53:56;;;;;;;12.07;3.40;;;21.70;81.60;;;;;;5029309;28;20440;-72
2022/06/20 06:56:47;;;;;;;7.87;2.90;;;21.80;80.80;;;;;;5026903;28;20444;-73
2022/06/20 06:59:39;;;;;;;10.90;3.20;;;22.00;79.20;;;;;;5049954;28;20447;-73
2022/06/20 07:02:29;;;;;;;9.30;2.53;;;22.00;78.50;;;;;;5034727;28;20516;-73
2022/06/20 07:05:19;;;;;;;11.17;2.93;;;22.00;79.00;;;;;;5026811;28;20440;-73
2022/06/20 07:08:12;;;;;;;10.57;3.43;;;22.00;78.60;;;;;;5026705;28;20535;-73
2022/06/20 07:11:03;;;;;;;7.43;2.90;;;21.90;79.10;;;;;;5039676;28;20539;-72
2022/06/20 07:13:57;;;;;;;12.63;3.43;;;21.90;81.00;;;;;;5027558;28;20976;-73
2022/06/20 07:16:46;;;;;;;12.83;3.27;;;21.90;82.60;;;;;;5027173;28;20819;-74
2022/06/20 07:19:33;;;;;;;9.03;3.40;;;21.90;84.90;;;;;;5029593;28;20492;-73
2022/06/20 07:22:21;;;;;;;6.97;3.03;;;21.80;84.10;;;;;;5032304;28;20526;-73
2022/06/20 07:25:16;;;;;;;10.67;3.43;;;21.90;83.90;;;;;;5024618;28;20449;-73
2022/06/20 07:28:08;;;;;;;12.80;3.07;;;22.00;82.90;;;;;;5029434;28;20550;-73
2022/06/20 07:30:57;;;;;;;11.30;4.50;;;22.20;81.30;;;;;;5043011;28;20545;-74
2022/06/20 07:33:49;;;;;;;6.57;3.37;;;22.30;81.70;;;;;;5030120;28;20453;-74
2022/06/20 07:36:39;;;;;;;9.23;3.40;;;22.20;82.60;;;;;;5028975;28;20801;-73
2022/06/20 07:39:31;;;;;;;7.30;2.73;;;22.40;82.50;;;;;;5026694;28;20576;-74
2022/06/20 07:42:26;;;;;;;10.90;3.90;;;22.70;81.50;;;;;;5026972;28;20519;-72
2022/06/20 07:45:16;;;;;;;7.33;4.00;;;22.90;80.10;;;;;;5027374;28;20439;-73
2022/06/20 07:48:08;;;;;;;9.07;2.83;;;23.00;77.00;;;;;;5024019;28;20483;-73
2022/06/20 07:50:58;;;;;;;9.23;3.47;;;23.10;75.60;;;;;;5027980;28;20997;-72
2022/06/20 07:53:49;;;;;;;9.60;3.03;;;23.10;74.70;;;;;;5026033;28;21146;-73
2022/06/20 07:56:39;;;;;;;6.20;2.93;;;23.10;75.00;;;;;;5028868;28;20444;-74
2022/06/20 07:59:32;;;;;;;8.60;3.40;;;22.80;75.60;;;;;;5038427;28;20531;-73
2022/06/20 08:02:23;;;;;;;11.70;3.73;;;22.70;77.40;;;;;;5034563;28;20463;-74
2022/06/20 08:05:14;;;;;;;9.93;3.50;;;22.70;78.00;;;;;;5025626;28;20457;-73
2022/06/20 08:08:04;;;;;;;9.97;3.50;;;22.80;80.00;;;;;;5028097;28;21011;-73
2022/06/20 08:10:56;;;;;;;11.73;4.00;;;22.90;79.20;;;;;;5031566;28;20467;-73
2022/06/20 08:13:50;;;;;;;13.83;3.70;;;22.90;79.30;;;;;;5021682;28;20456;-73
2022/06/20 08:16:38;;;;;;;11.93;3.53;;;23.00;79.60;;;;;;5026458;28;20928;-75
2022/06/20 08:19:25;;;;;;;12.33;3.20;;;23.00;81.20;;;;;;5029084;28;20846;-74
2022/06/20 08:22:16;;;;;;;16.67;3.60;;;23.10;81.50;;;;;;5024727;28;21074;-74
2022/06/20 08:25:10;;;;;;;9.07;3.40;;;23.10;81.70;;;;;;5026559;28;20452;-73
2022/06/20 08:28:01;;;;;;;7.17;3.57;;;23.10;81.10;;;;;;5028036;28;20456;-73
2022/06/20 08:30:50;;;;;;;6.30;3.37;;;23.10;80.80;;;;;;5027331;28;20909;-73
2022/06/20 08:33:43;;;;;;;12.80;3.40;;;23.20;82.10;;;;;;5024703;28;20480;-73
2022/06/20 08:36:34;;;;;;;6.60;4.00;;;23.30;79.20;;;;;;5027117;28;20436;-72
2022/06/20 08:39:25;;;;;;;11.50;4.10;;;23.40;76.90;;;;;;5026903;28;20871;-75
2022/06/20 08:42:43;;;;;;;12.97;4.37;;;23.40;74.40;;;;;;5022676;28;20427;-73
2022/06/20 08:45:52;;;;;;;7.57;3.50;;;23.20;75.60;;;;;;5028915;28;20452;-73
2022/06/20 08:49:14;;;;;;;10.63;4.13;;;22.90;75.50;;;;;;5031441;28;20822;-73
2022/06/20 08:52:42;;;;;;;17.53;4.00;;;23.00;77.30;;;;;;5030785;28;20484;-73
2022/06/20 08:55:58;;;;;;;9.20;3.27;;;23.20;74.20;;;;;;5030559;28;20930;-73
2022/06/20 08:58:57;;;;;;;8.23;3.20;;;23.40;74.20;;;;;;5030343;28;20534;-73
2022/06/20 09:01:56;;;;;;;11.23;3.77;;;23.20;75.10;;;;;;5036230;28;20437;-75
2022/06/20 09:05:10;;;;;;;11.90;4.43;;;23.10;74.60;;;;;;5030826;28;20500;-72
2022/06/20 09:08:29;;;;;;;12.80;3.60;;;23.10;74.90;;;;;;5029469;28;20451;-71
2022/06/20 09:11:32;;;;;;;16.90;3.40;;;23.20;76.00;;;;;;5029497;28;20554;-71
2022/06/20 09:14:41;;;;;;;6.53;4.40;;;23.30;80.10;;;;;;5030787;28;20460;-73
2022/06/20 09:17:36;;;;;;;12.40;4.57;;;23.00;85.00;;;;;;5032019;28;20531;-73
2022/06/20 09:20:31;;;;;;;7.90;4.40;;;22.80;88.60;;;;;;5031045;28;20969;-72
2022/06/20 09:23:36;;;;;;;8.87;4.67;;;23.00;88.40;;;;;;5029290;28;20556;-73
2022/06/20 09:26:33;;;;;;;11.00;4.87;;;23.10;86.90;;;;;;5028649;28;20527;-72
2022/06/20 09:29:35;;;;;;;9.17;4.60;;;23.20;85.70;;;;;;5028898;28;20946;-71
2022/06/20 09:32:48;;;;;;;10.23;5.10;;;23.20;81.90;;;;;;5024986;28;20525;-72
2022/06/20 09:36:02;;;;;;;10.23;4.10;;;23.10;79.60;;;;;;5029511;28;20440;-72
2022/06/20 09:39:09;;;;;;;9.57;4.60;;;23.10;81.40;;;;;;5004632;28;20460;-71
2022/06/20 09:42:02;;;;;;;16.17;4.67;;;22.90;80.80;;;;;;5028336;28;20441;-72
2022/06/20 09:44:55;;;;;;;6.60;4.23;;;22.60;82.60;;;;;;5030608;28;20548;-71
2022/06/20 09:47:51;;;;;;;11.60;4.70;;;22.60;82.50;;;;;;5029218;28;20457;-72
2022/06/20 09:50:59;;;;;;;8.70;4.60;;;22.50;83.20;;;;;;5029576;28;20444;-73
2022/06/20 09:53:59;;;;;;;10.63;4.33;;;22.50;84.80;;;;;;5028238;28;20846;-72
2022/06/20 09:56:54;;;;;;;11.37;5.07;;;22.60;85.60;;;;;;5027666;28;20808;-72
2022/06/20 09:59:47;;;;;;;8.23;3.40;;;22.70;85.50;;;;;;5029181;28;20625;-72
2022/06/20 10:02:41;;;;;;;4.90;3.33;;;22.80;85.50;;;;;;5025544;28;20448;-72
2022/06/20 10:05:43;;;;;;;6.20;2.50;;;22.90;84.40;;;;;;5024438;28;20465;-72
2022/06/20 10:08:35;;;;;;;14.33;4.30;;;22.90;86.30;;;;;;5030769;28;20530;-72
2022/06/20 10:11:26;;;;;;;15.83;3.23;;;23.10;84.90;;;;;;5025992;28;20484;-71
2022/06/20 10:14:16;;;;;;;9.00;3.20;;;23.30;84.20;;;;;;5027252;28;20968;-72
2022/06/20 10:17:12;;;;;;;8.63;3.73;;;23.40;82.10;;;;;;5035956;28;20535;-72
2022/06/20 10:20:07;;;;;;;7.17;3.50;;;23.60;81.00;;;;;;5027020;28;20647;-72
2022/06/20 10:22:58;;;;;;;7.90;3.53;;;23.60;81.70;;;;;;5029784;28;20440;-73
2022/06/20 10:26:11;;;;;;;9.10;3.27;;;23.70;81.90;;;;;;5029037;28;20999;-72
2022/06/20 10:29:07;;;;;;;8.43;3.20;;;23.50;79.30;;;;;;5031860;28;20993;-72
2022/06/20 10:32:10;;;;;;;7.27;3.00;;;23.40;81.10;;;;;;5029962;28;20471;-72
2022/06/20 10:35:08;;;;;;;7.40;3.07;;;22.80;84.00;;;;;;5028457;28;20571;-72
2022/06/20 10:38:03;;;;;;;6.30;3.37;;;22.60;85.40;;;;;;5026572;28;20440;-72
2022/06/20 10:40:57;;;;;;;5.37;3.87;;;22.10;86.90;;;;;;5023444;28;20499;-72
2022/06/20 10:43:47;;;;;;;9.20;3.93;;;22.00;88.00;;;;;;5030595;28;20547;-72
2022/06/20 10:46:41;;;;;;;4.90;2.60;;;22.10;88.70;;;;;;5028302;28;20468;-72
2022/06/20 10:49:41;;;;;;;5.47;2.00;;;22.30;88.40;;;;;;5028340;28;20940;-72
2022/06/20 10:52:48;;;;;;;7.07;2.50;;;22.40;86.40;;;;;;5026057;28;20472;-72
2022/06/20 10:55:43;;;;;;;6.73;2.43;;;22.30;84.70;;;;;;5029096;28;20567;-72
2022/06/20 10:58:53;;;;;;;4.10;2.17;;;22.40;84.30;;;;;;5030556;28;20491;-73
2022/06/20 11:01:44;;;;;;;3.87;2.07;;;22.60;80.90;;;;;;5027406;28;20771;-71
2022/06/20 11:04:58;;;;;;;3.60;2.50;;;22.70;81.00;;;;;;5029540;28;20810;-72
2022/06/20 11:07:57;;;;;;;6.70;2.30;;;22.70;80.20;;;;;;5024823;28;20525;-72
2022/06/20 11:11:00;;;;;;;4.00;1.70;;;22.80;79.10;;;;;;5059288;22;20475;-72
2022/06/20 11:13:52;;;;;;;14.93;3.10;;;22.60;80.70;;;;;;5044094;28;20466;-72
2022/06/20 11:16:47;;;;;;;2.73;1.97;;;22.20;82.30;;;;;;5049982;28;20439;-72
2022/06/20 11:19:44;;;;;;;3.00;1.90;;;22.20;81.40;;;;;;5050946;28;20855;-74
2022/06/20 11:22:37;;;;;;;5.63;1.87;;;22.30;81.60;;;;;;5051616;28;20888;-72
2022/06/20 11:25:37;;;;;;;3.13;1.73;;;22.40;82.70;;;;;;5048297;28;20455;-74
2022/06/20 11:28:46;;;;;;;4.30;1.70;;;22.60;79.50;;;;;;5049026;28;20594;-72
2022/06/20 11:31:42;;;;;;;3.13;1.77;;;22.80;78.90;;;;;;5045549;28;20470;-72
2022/06/20 11:35:02;;;;;;;6.27;1.80;;;22.70;76.80;;;;;;5047870;28;21079;-72
2022/06/20 11:38:02;;;;;;;2.90;1.90;;;22.40;78.70;;;;;;5045649;28;20514;-71
2022/06/20 11:40:58;;;;;;;4.60;1.77;;;22.40;80.10;;;;;;5043804;28;21004;-73
2022/06/20 11:44:16;;;;;;;3.57;1.70;;;22.70;79.10;;;;;;5049284;28;21082;-71
2022/06/20 11:47:28;;;;;;;3.43;2.13;;;22.70;77.20;;;;;;5045495;28;20436;-73
2022/06/20 11:50:50;;;;;;;5.97;1.87;;;22.20;78.00;;;;;;5042065;28;20540;-74
2022/06/20 11:53:45;;;;;;;6.07;1.80;;;22.20;79.40;;;;;;5005977;28;20485;-73
2022/06/20 11:56:41;;;;;;;4.03;1.97;;;22.30;80.30;;;;;;5007064;28;20437;-74
2022/06/20 11:59:37;;;;;;;17.63;2.37;;;22.20;79.50;;;;;;5056061;28;20575;-74
2022/06/20 12:02:46;;;;;;;6.13;2.13;;;22.20;78.40;;;;;;5057198;28;20412;-73
2022/06/20 12:05:48;;;;;;;5.20;2.33;;;22.00;76.30;;;;;;5048724;28;20436;-73
2022/06/20 12:08:42;;;;;;;3.03;1.80;;;21.80;78.00;;;;;;5048296;28;20440;-73
2022/06/20 12:11:54;;;;;;;4.13;1.57;;;21.60;78.50;;;;;;5043810;28;20467;-74
2022/06/20 12:14:51;;;;;;;4.90;1.80;;;21.70;79.10;;;;;;5049307;28;20437;-74
2022/06/20 12:17:44;;;;;;;3.00;2.00;;;21.70;77.10;;;;;;5049587;28;20546;-74
2022/06/20 12:23:45;;;;;;;3.77;2.50;;;21.70;78.00;;;;;;5053419;28;20534;-74
2022/06/20 12:26:35;;;;;;;3.47;2.00;;;21.80;76.50;;;;;;5052450;28;20561;-73
2022/06/20 12:29:24;;;;;;;9.50;2.40;;;21.80;76.30;;;;;;5049337;28;20847;-74
2022/06/20 12:32:15;;;;;;;6.60;2.40;;;21.40;77.50;;;;;;5051552;28;20466;-73
2022/06/20 12:35:11;;;;;;;5.70;1.93;;;21.10;79.10;;;;;;5051448;28;20474;-74
2022/06/20 12:38:04;;;;;;;3.67;2.50;;;21.30;80.30;;;;;;5048765;28;20440;-74
2022/06/20 12:40:53;;;;;;;3.03;2.03;;;21.40;80.40;;;;;;5044499;28;20491;-74
2022/06/20 12:43:45;;;;;;;3.00;2.03;;;21.70;78.20;;;;;;5053200;28;20955;-73
2022/06/20 12:46:42;;;;;;;7.23;3.03;;;21.60;78.70;;;;;;5051860;28;20443;-73
2022/06/20 12:49:53;;;;;;;5.60;2.33;;;21.30;78.60;;;;;;5047527;28;21106;-74
2022/06/20 12:52:49;;;;;;;6.80;2.27;;;21.50;79.40;;;;;;5051684;28;20491;-73
2022/06/20 12:55:49;;;;;;;2.90;2.00;;;21.50;77.80;;;;;;5050811;28;20964;-73
2022/06/20 12:58:52;;;;;;;2.70;2.20;;;21.30;78.10;;;;;;5051494;28;20450;-73
2022/06/20 13:01:45;;;;;;;6.40;2.07;;;21.10;78.20;;;;;;5056865;28;20466;-73
2022/06/20 13:04:49;;;;;;;6.30;2.23;;;21.00;79.60;;;;;;5051959;28;20451;-73
2022/06/20 13:08:01;;;;;;;3.50;2.10;;;21.20;79.50;;;;;;5055517;28;20562;-73
2022/06/20 13:11:00;;;;;;;2.67;1.60;;;21.40;79.60;;;;;;5046129;28;20544;-75
2022/06/20 13:14:05;;;;;;;3.13;2.30;;;21.80;77.10;;;;;;5044704;28;20968;-76
2022/06/20 13:17:06;;;;;;;6.67;2.10;;;21.80;74.80;;;;;;5045614;28;20424;-75
2022/06/20 13:20:25;;;;;;;2.90;1.73;;;22.00;74.30;;;;;;5054911;28;20469;-76
2022/06/20 13:23:47;;;;;;;3.50;1.30;;;22.10;74.10;;;;;;5054271;28;20490;-75
2022/06/20 13:26:40;;;;;;;2.83;1.63;;;22.10;74.20;;;;;;5059761;28;20562;-75
2022/06/20 13:29:38;;;;;;;2.40;1.47;;;22.20;73.10;;;;;;5049479;28;20540;-76
2022/06/20 13:32:29;;;;;;;3.80;1.80;;;22.30;73.70;;;;;;5063344;28;20470;-76
2022/06/20 13:35:20;;;;;;;5.10;1.90;;;22.50;72.90;;;;;;5057379;28;20784;-75
2022/06/20 13:38:14;;;;;;;2.93;2.00;;;22.60;72.40;;;;;;5058558;28;20562;-75
2022/06/20 13:41:08;;;;;;;3.90;2.27;;;22.50;71.10;;;;;;5054705;28;20817;-75
2022/06/20 13:44:01;;;;;;;6.13;2.20;;;22.20;71.40;;;;;;5064943;28;20423;-75
2022/06/20 13:46:53;;;;;;;2.50;1.73;;;22.00;73.20;;;;;;5063187;28;20493;-75
2022/06/20 13:49:46;;;;;;;3.00;2.17;;;22.00;73.30;;;;;;5047891;28;20470;-76
2022/06/20 13:52:39;;;;;;;6.20;2.00;;;22.10;73.50;;;;;;5054848;28;20597;-75
2022/06/20 13:55:30;;;;;;;6.07;2.03;;;22.10;73.10;;;;;;5052953;28;20570;-75
2022/06/20 13:58:20;;;;;;;4.70;1.90;;;21.90;73.10;;;;;;5056971;28;20444;-75
2022/06/20 14:01:10;;;;;;;3.70;2.40;;;21.90;74.70;;;;;;5052807;28;20582;-75
2022/06/20 14:03:59;;;;;;;2.80;1.80;;;21.90;74.60;;;;;;5066152;28;20419;-75
2022/06/20 14:06:52;;;;;;;3.40;1.27;;;21.90;74.60;;;;;;5055621;28;20419;-75
2022/06/20 14:09:45;;;;;;;3.33;1.00;;;21.80;75.10;;;;;;5053734;28;20958;-75
2022/06/20 14:12:34;;;;;;;1.90;1.10;;;21.70;75.40;;;;;;5065874;28;20516;-75
2022/06/20 14:15:24;;;;;;;2.10;1.40;;;21.40;75.90;;;;;;5063597;28;20431;-76
2022/06/20 14:18:18;;;;;;;1.93;1.03;;;21.10;77.20;;;;;;5052528;28;20467;-75
2022/06/20 14:21:08;;;;;;;2.20;0.83;;;21.00;79.10;;;;;;5057118;28;21136;-75
2022/06/20 14:23:55;;;;;;;1.80;0.90;;;21.00;79.70;;;;;;5058535;28;20423;-75
2022/06/20 14:26:42;;;;;;;4.63;1.30;;;21.00;79.60;;;;;;5063248;28;20557;-75
2022/06/20 14:29:30;;;;;;;2.27;1.00;;;21.10;78.40;;;;;;5059002;28;20613;-75
2022/06/20 14:32:22;;;;;;;3.57;0.83;;;21.00;80.10;;;;;;5063888;28;20477;-75
2022/06/20 14:35:23;;;;;;;2.40;1.17;;;21.10;79.90;;;;;;5055580;28;20423;-75
2022/06/20 14:38:15;;;;;;;2.60;0.83;;;21.20;79.40;;;;;;5052580;28;20992;-76
2022/06/20 14:41:39;;;;;;;1.70;0.80;;;21.20;77.20;;;;;;5053527;28;20442;-76
2022/06/20 14:44:25;;;;;;;2.00;1.03;;;21.30;78.00;;;;;;5064076;28;20431;-76
2022/06/20 14:47:36;;;;;;;1.97;1.20;;;21.20;77.00;;;;;;5062750;28;20415;-75
2022/06/20 14:50:25;;;;;;;2.30;1.23;;;21.20;78.20;;;;;;5060187;28;20525;-75
2022/06/20 14:53:20;;;;;;;4.00;1.27;;;21.20;77.20;;;;;;5059490;28;20472;-75
2022/06/20 14:56:13;;;;;;;3.70;1.10;;;21.20;77.20;;;;;;5057304;28;20443;-75
2022/06/20 14:59:05;;;;;;;2.10;1.30;;;21.20;77.90;;;;;;5041164;28;20973;-75
2022/06/20 15:02:00;;;;;;;3.07;1.40;;;21.20;76.70;;;;;;5056315;28;20419;-76
2022/06/20 15:04:51;;;;;;;2.37;1.67;;;21.10;77.00;;;;;;5051701;28;20420;-75
2022/06/20 15:07:41;;;;;;;2.67;1.47;;;21.00;77.80;;;;;;5057467;28;20537;-75
2022/06/20 15:10:33;;;;;;;2.23;1.50;;;21.00;78.10;;;;;;5057865;28;20542;-75